createdAt,value
2018-06-25T00:01:26.516Z,99.90
2018-06-25T00:03:55.001Z,99.90
2018-06-25T00:06:23.594Z,99.90
2018-06-25T00:08:52.116Z,99.90
2018-06-25T00:11:20.606Z,99.90
2018-06-25T00:13:49.132Z,99.90
2018-06-25T00:16:17.617Z,99.90
2018-06-25T00:18:46.122Z,99.90
2018-06-25T00:21:14.625Z,99.90
2018-06-25T00:23:43.258Z,99.90
2018-06-25T00:26:11.767Z,99.90
2018-06-25T00:28:40.329Z,99.90
2018-06-25T00:31:08.907Z,99.90
2018-06-25T00:33:37.484Z,99.90
2018-06-25T00:36:06.037Z,99.90
2018-06-25T00:38:34.613Z,99.90
2018-06-25T00:41:03.165Z,99.90
2018-06-25T00:43:31.697Z,99.90
2018-06-25T00:46:00.228Z,99.90
2018-06-25T00:48:28.809Z,99.90
2018-06-25T00:50:57.285Z,99.90
2018-06-25T00:53:25.821Z,99.90
2018-06-25T00:55:54.297Z,99.90
2018-06-25T00:58:22.837Z,99.90
2018-06-25T01:00:51.353Z,99.90
2018-06-25T01:03:19.868Z,99.90
2018-06-25T01:05:48.417Z,99.90
2018-06-25T01:08:16.912Z,99.90
2018-06-25T01:10:45.437Z,99.90
2018-06-25T01:13:13.906Z,99.90
2018-06-25T01:15:42.450Z,99.90
2018-06-25T01:18:10.913Z,99.90
2018-06-25T01:20:39.654Z,99.90
2018-06-25T01:23:08.126Z,99.90
2018-06-25T01:25:36.673Z,99.90
2018-06-25T01:28:05.261Z,99.90
2018-06-25T01:30:33.765Z,99.90
2018-06-25T01:33:02.273Z,99.90
2018-06-25T01:35:30.806Z,99.90
2018-06-25T01:37:59.289Z,99.90
2018-06-25T01:40:27.809Z,99.90
2018-06-25T01:42:56.461Z,99.90
2018-06-25T01:45:25.073Z,99.90
2018-06-25T01:47:53.564Z,99.90
2018-06-25T01:50:22.142Z,99.90
2018-06-25T01:52:50.750Z,99.90
2018-06-25T01:55:19.261Z,99.90
2018-06-25T01:57:48.630Z,99.90
2018-06-25T02:00:17.194Z,99.90
2018-06-25T02:02:45.828Z,99.90
2018-06-25T02:05:14.397Z,99.90
2018-06-25T02:07:42.913Z,99.90
2018-06-25T02:10:11.430Z,99.90
2018-06-25T02:12:40.006Z,99.90
2018-06-25T02:15:08.885Z,99.90
2018-06-25T02:17:37.965Z,99.90
2018-06-25T02:20:07.157Z,99.90
2018-06-25T02:22:35.692Z,99.90
2018-06-25T02:25:04.302Z,99.90
2018-06-25T02:27:32.840Z,99.90
2018-06-25T02:30:01.324Z,99.90
2018-06-25T02:32:30.095Z,99.90
2018-06-25T02:34:58.588Z,99.90
2018-06-25T02:37:27.122Z,99.90
2018-06-25T02:39:55.629Z,99.90
2018-06-25T02:42:24.185Z,99.90
2018-06-25T02:44:52.705Z,99.90
2018-06-25T02:47:21.285Z,99.90
2018-06-25T02:49:49.797Z,99.90
2018-06-25T02:52:18.348Z,99.90
2018-06-25T02:54:46.896Z,99.90
2018-06-25T02:57:15.417Z,99.90
2018-06-25T02:59:44.001Z,99.90
2018-06-25T03:02:12.504Z,99.90
2018-06-25T03:04:41.065Z,99.90
2018-06-25T03:07:09.569Z,99.90
2018-06-25T03:09:38.124Z,99.90
2018-06-25T03:12:06.722Z,99.90
2018-06-25T03:14:35.220Z,99.90
2018-06-25T03:17:03.721Z,99.90
2018-06-25T03:19:32.234Z,99.90
2018-06-25T03:22:00.745Z,99.90
2018-06-25T03:24:29.268Z,99.90
2018-06-25T03:26:57.777Z,99.90
2018-06-25T03:29:26.286Z,99.90
2018-06-25T03:31:54.870Z,99.90
2018-06-25T03:34:23.370Z,99.90
2018-06-25T03:36:51.861Z,99.90
2018-06-25T03:39:20.358Z,99.90
2018-06-25T03:41:48.877Z,99.90
2018-06-25T03:44:17.427Z,99.90
2018-06-25T03:46:45.911Z,99.90
2018-06-25T03:49:14.549Z,99.90
2018-06-25T03:51:43.057Z,99.90
2018-06-25T03:54:11.545Z,99.90
2018-06-25T03:56:40.075Z,99.90
2018-06-25T03:59:08.553Z,99.90
2018-06-25T04:01:37.362Z,99.90
2018-06-25T04:04:05.877Z,99.90
2018-06-25T04:06:34.445Z,99.90
2018-06-25T04:09:03.272Z,99.90
2018-06-25T04:11:31.842Z,99.90
2018-06-25T04:14:00.449Z,99.90
2018-06-25T04:16:28.993Z,99.90
2018-06-25T04:19:01.981Z,99.90
2018-06-25T04:21:30.548Z,99.90
2018-06-25T04:23:59.280Z,99.90
2018-06-25T04:26:27.817Z,99.90
2018-06-25T04:28:56.324Z,99.90
2018-06-25T04:31:24.844Z,99.90
2018-06-25T04:33:53.320Z,99.90
2018-06-25T04:36:21.867Z,99.90
2018-06-25T04:38:50.369Z,99.90
2018-06-25T04:41:18.861Z,99.90
2018-06-25T04:43:47.385Z,99.90
2018-06-25T04:46:15.913Z,99.90
2018-06-25T04:48:44.461Z,99.90
2018-06-25T04:51:13.184Z,99.90
2018-06-25T04:53:42.385Z,99.90
2018-06-25T04:56:11.677Z,99.90
2018-06-25T04:58:40.277Z,99.90
2018-06-25T05:01:08.886Z,99.90
2018-06-25T05:03:37.437Z,99.90
2018-06-25T05:06:05.917Z,99.90
2018-06-25T05:08:34.491Z,99.90
2018-06-25T05:11:02.988Z,99.90
2018-06-25T05:13:31.520Z,99.90
2018-06-25T05:16:00.040Z,99.90
2018-06-25T05:18:28.570Z,99.90
2018-06-25T05:20:57.048Z,99.90
2018-06-25T05:23:26.281Z,99.90
2018-06-25T05:25:54.895Z,99.90
2018-06-25T05:28:23.753Z,99.90
2018-06-25T05:30:52.244Z,99.90
2018-06-25T05:33:20.796Z,99.90
2018-06-25T05:35:49.329Z,99.90
2018-06-25T05:38:17.885Z,99.90
2018-06-25T05:40:46.438Z,99.90
2018-06-25T05:43:14.903Z,99.90
2018-06-25T05:45:43.496Z,99.90
2018-06-25T05:48:11.964Z,99.90
2018-06-25T05:50:40.514Z,99.90
2018-06-25T05:53:09.054Z,99.90
2018-06-25T05:55:37.625Z,99.90
2018-06-25T05:58:06.129Z,99.90
2018-06-25T06:00:34.656Z,99.90
2018-06-25T06:03:03.113Z,99.90
2018-06-25T06:05:31.640Z,99.90
2018-06-25T06:08:00.122Z,99.90
2018-06-25T06:10:28.645Z,99.90
2018-06-25T06:12:57.153Z,99.90
2018-06-25T06:15:25.685Z,99.90
2018-06-25T06:17:54.168Z,99.90
2018-06-25T06:20:22.684Z,99.90
2018-06-25T06:22:51.864Z,99.90
2018-06-25T06:25:20.415Z,99.90
2018-06-25T06:27:49.058Z,99.90
2018-06-25T06:30:17.661Z,99.90
2018-06-25T06:32:46.158Z,99.90
2018-06-25T06:35:14.694Z,99.90
2018-06-25T06:37:43.220Z,99.90
2018-06-25T06:40:11.800Z,99.90
2018-06-25T06:42:40.264Z,99.90
2018-06-25T06:45:08.791Z,99.90
2018-06-25T06:47:37.361Z,99.90
2018-06-25T06:50:05.941Z,99.90
2018-06-25T06:52:34.474Z,99.90
2018-06-25T06:55:03.005Z,99.90
2018-06-25T06:57:31.561Z,99.90
2018-06-25T07:00:00.022Z,99.90
2018-06-25T07:02:28.533Z,99.90
2018-06-25T07:04:57.018Z,99.90
2018-06-25T07:07:25.543Z,99.90
2018-06-25T07:09:54.107Z,99.90
2018-06-25T07:12:22.638Z,99.90
2018-06-25T07:14:51.150Z,99.90
2018-06-25T07:17:19.690Z,99.90
2018-06-25T07:19:48.160Z,99.90
2018-06-25T07:22:16.725Z,99.90
2018-06-25T07:24:45.223Z,99.90
2018-06-25T07:27:13.703Z,99.90
2018-06-25T07:29:42.290Z,99.90
2018-06-25T07:32:11.017Z,99.90
2018-06-25T07:34:39.645Z,99.90
2018-06-25T07:37:08.165Z,99.90
2018-06-25T07:39:37.027Z,99.90
2018-06-25T07:42:05.593Z,99.90
2018-06-25T07:44:34.130Z,99.90
2018-06-25T07:49:30.955Z,99.90
2018-06-25T07:51:59.445Z,99.90
2018-06-25T07:54:28.044Z,99.90
2018-06-25T07:56:56.556Z,99.90
2018-06-25T07:59:25.072Z,99.90
2018-06-25T08:01:53.553Z,99.90
2018-06-25T08:04:22.133Z,99.90
2018-06-25T08:06:50.592Z,99.90
2018-06-25T08:09:19.174Z,99.90
2018-06-25T08:11:47.763Z,99.90
2018-06-25T08:14:16.313Z,99.90
2018-06-25T08:16:44.884Z,99.90
2018-06-25T08:19:13.349Z,99.90
2018-06-25T08:21:41.910Z,99.90
2018-06-25T08:24:10.417Z,99.90
2018-06-25T08:26:38.961Z,99.90
2018-06-25T08:29:07.633Z,99.90
2018-06-25T08:31:36.310Z,99.90
2018-06-25T08:34:04.850Z,99.90
2018-06-25T08:36:33.337Z,99.90
2018-06-25T08:39:01.821Z,99.90
2018-06-25T08:41:30.331Z,99.90
2018-06-25T08:43:58.820Z,99.90
2018-06-25T08:46:27.323Z,99.90
2018-06-25T08:48:55.925Z,99.90
2018-06-25T08:51:24.478Z,99.90
2018-06-25T08:53:52.977Z,99.90
2018-06-25T08:56:21.485Z,99.90
2018-06-25T08:58:50.016Z,99.90
2018-06-25T09:01:18.909Z,99.90
2018-06-25T09:03:47.401Z,99.90
2018-06-25T09:06:15.986Z,99.90
2018-06-25T09:08:44.557Z,99.90
2018-06-25T09:11:13.065Z,99.90
2018-06-25T09:13:41.556Z,99.90
2018-06-25T09:16:10.098Z,99.90
2018-06-25T09:18:38.620Z,99.90
2018-06-25T09:21:07.171Z,99.90
2018-06-25T09:23:35.732Z,99.90
2018-06-25T09:26:04.241Z,99.90
2018-06-25T09:28:32.776Z,99.90
2018-06-25T09:31:01.294Z,99.90
2018-06-25T09:33:29.821Z,99.90
2018-06-25T09:35:58.317Z,99.90
2018-06-25T09:38:26.838Z,99.90
2018-06-25T09:40:55.416Z,99.90
2018-06-25T09:43:23.953Z,99.90
2018-06-25T09:45:52.466Z,99.90
2018-06-25T09:48:20.965Z,99.90
2018-06-25T09:50:49.529Z,99.90
2018-06-25T09:53:18.073Z,99.90
2018-06-25T09:55:46.804Z,99.90
2018-06-25T09:58:15.370Z,99.90
2018-06-25T10:00:49.293Z,99.90
2018-06-25T10:03:17.856Z,99.90
2018-06-25T10:05:46.392Z,99.90
2018-06-25T10:08:14.907Z,99.90
2018-06-25T10:10:43.415Z,99.90
2018-06-25T10:13:12.428Z,99.90
2018-06-25T10:15:41.300Z,99.90
2018-06-25T10:20:38.069Z,99.90
2018-06-25T10:23:06.794Z,99.90
2018-06-25T10:25:35.311Z,99.90
2018-06-25T10:28:03.819Z,99.90
2018-06-25T10:30:32.329Z,99.90
2018-06-25T10:33:00.821Z,99.90
2018-06-25T10:35:29.313Z,99.90
2018-06-25T10:37:57.797Z,99.90
2018-06-25T10:40:26.321Z,99.90
2018-06-25T10:42:54.817Z,99.90
2018-06-25T10:45:23.333Z,99.90
2018-06-25T10:47:51.837Z,99.90
2018-06-25T10:50:20.373Z,99.90
2018-06-25T10:52:48.833Z,99.90
2018-06-25T10:55:17.381Z,99.90
2018-06-25T10:57:45.909Z,99.90
2018-06-25T11:02:42.601Z,99.30
2018-06-25T11:05:11.126Z,98.00
2018-06-25T11:07:39.703Z,97.40
2018-06-25T11:10:08.173Z,97.30
2018-06-25T11:12:36.717Z,97.20
2018-06-25T11:15:05.433Z,98.20
2018-06-25T11:17:34.004Z,98.70
2018-06-25T11:20:02.640Z,99.80
2018-06-25T11:22:31.190Z,99.30
2018-06-25T11:24:59.750Z,99.80
2018-06-25T11:27:28.328Z,99.90
2018-06-25T11:29:56.777Z,99.90
2018-06-25T11:32:25.360Z,99.90
2018-06-25T11:34:53.913Z,99.90
2018-06-25T11:37:22.443Z,99.90
2018-06-25T11:39:50.921Z,99.90
2018-06-25T11:42:19.438Z,99.90
2018-06-25T11:44:47.893Z,99.90
2018-06-25T11:47:16.408Z,99.90
2018-06-25T11:49:44.925Z,99.90
2018-06-25T11:52:13.460Z,99.90
2018-06-25T11:54:41.951Z,99.90
2018-06-25T11:57:10.521Z,99.90
2018-06-25T11:59:38.981Z,99.90
2018-06-25T12:02:07.586Z,99.90
2018-06-25T12:04:36.050Z,99.90
2018-06-25T12:07:04.598Z,99.90
2018-06-25T12:09:33.093Z,99.90
2018-06-25T12:12:01.585Z,99.90
2018-06-25T12:14:30.084Z,99.90
2018-06-25T12:16:58.654Z,99.90
2018-06-25T12:19:27.185Z,99.90
2018-06-25T12:21:55.697Z,99.90
2018-06-25T12:24:24.204Z,99.90
2018-06-25T12:26:52.729Z,99.90
2018-06-25T12:29:21.309Z,99.90
2018-06-25T12:31:49.829Z,99.90
2018-06-25T12:34:18.353Z,99.90
2018-06-25T12:36:46.863Z,99.90
2018-06-25T12:39:15.368Z,99.90
2018-06-25T12:41:43.905Z,99.90
2018-06-25T12:44:12.430Z,99.90
2018-06-25T12:46:40.893Z,99.90
2018-06-25T12:49:10.025Z,99.90
2018-06-25T12:51:38.589Z,99.90
2018-06-25T12:54:07.126Z,99.90
2018-06-25T12:59:03.858Z,97.80
2018-06-25T13:01:32.436Z,97.30
2018-06-25T13:04:00.870Z,98.00
2018-06-25T13:06:29.386Z,97.20
2018-06-25T13:08:57.989Z,96.90
2018-06-25T13:11:26.522Z,97.20
2018-06-25T13:13:54.993Z,97.70
2018-06-25T13:16:23.525Z,97.50
2018-06-25T13:18:52.025Z,97.10
2018-06-25T13:21:20.549Z,96.40
2018-06-25T13:23:49.044Z,96.50
2018-06-25T13:26:17.638Z,96.30
2018-06-25T13:28:46.142Z,96.60
2018-06-25T13:31:14.859Z,96.70
2018-06-25T13:33:43.241Z,96.40
2018-06-25T13:36:11.771Z,97.30
2018-06-25T13:38:40.316Z,97.30
2018-06-25T13:41:08.872Z,96.90
2018-06-25T13:43:37.405Z,97.20
2018-06-25T13:46:06.497Z,96.60
2018-06-25T13:48:34.991Z,97.50
2018-06-25T13:51:03.574Z,97.50
2018-06-25T13:53:32.081Z,97.80
2018-06-25T13:56:00.547Z,97.10
2018-06-25T13:58:29.036Z,97.70
2018-06-25T14:00:58.164Z,97.70
2018-06-25T14:03:26.673Z,97.60
2018-06-25T14:05:55.140Z,97.90
2018-06-25T14:08:23.657Z,97.50
2018-06-25T14:10:52.132Z,96.30
2018-06-25T14:13:20.682Z,95.50
2018-06-25T14:15:49.240Z,95.00
2018-06-25T14:18:17.718Z,94.50
2018-06-25T14:20:46.213Z,94.10
2018-06-25T14:23:14.785Z,93.50
2018-06-25T14:25:48.634Z,92.50
2018-06-25T14:28:22.787Z,92.40
2018-06-25T14:30:56.609Z,93.50
2018-06-25T14:33:30.452Z,94.00
2018-06-25T14:35:58.985Z,93.60
2018-06-25T14:38:27.507Z,93.30
2018-06-25T14:40:56.042Z,92.40
2018-06-25T14:43:24.599Z,92.50
2018-06-25T14:45:53.110Z,92.50
2018-06-25T14:48:21.633Z,93.40
2018-06-25T14:50:50.189Z,94.20
2018-06-25T14:53:18.741Z,95.10
2018-06-25T14:55:47.301Z,95.00
2018-06-25T14:58:15.790Z,95.10
2018-06-25T15:00:44.349Z,94.90
2018-06-25T15:03:12.824Z,93.50
2018-06-25T15:05:41.369Z,92.90
2018-06-25T15:08:09.925Z,93.50
2018-06-25T15:10:39.133Z,94.50
2018-06-25T15:13:07.707Z,95.20
2018-06-25T15:15:37.937Z,95.80
2018-06-25T15:18:06.961Z,96.30
2018-06-25T15:20:35.482Z,95.00
2018-06-25T15:23:04.037Z,94.70
2018-06-25T15:25:32.958Z,94.60
2018-06-25T15:28:01.429Z,94.10
2018-06-25T15:30:29.946Z,93.50
2018-06-25T15:32:58.742Z,92.00
2018-06-25T15:35:27.220Z,92.70
2018-06-25T15:37:55.792Z,93.10
2018-06-25T15:40:24.301Z,93.50
2018-06-25T15:42:52.837Z,93.10
2018-06-25T15:45:21.349Z,93.50
2018-06-25T15:47:49.870Z,93.10
2018-06-25T15:50:18.404Z,92.60
2018-06-25T15:52:46.938Z,91.90
2018-06-25T15:55:15.435Z,90.50
2018-06-25T15:57:43.977Z,89.90
2018-06-25T16:00:12.534Z,86.20
2018-06-25T16:02:41.069Z,85.60
2018-06-25T16:05:09.554Z,83.30
2018-06-25T16:07:38.102Z,81.80
2018-06-25T16:10:06.601Z,82.00
2018-06-25T16:12:35.148Z,80.90
2018-06-25T16:15:03.737Z,79.50
2018-06-25T16:17:32.296Z,78.10
2018-06-25T16:20:00.834Z,75.70
2018-06-25T16:29:54.072Z,82.00
2018-06-25T16:32:22.616Z,81.40
2018-06-25T16:34:51.087Z,78.40
2018-06-25T16:37:19.614Z,79.30
2018-06-25T16:39:48.161Z,78.10
2018-06-25T16:42:16.818Z,78.60
2018-06-25T16:44:45.401Z,81.20
2018-06-25T16:47:13.895Z,81.70
2018-06-25T16:49:42.466Z,83.60
2018-06-25T16:52:10.941Z,85.60
2018-06-25T16:54:39.491Z,86.00
2018-06-25T16:57:07.985Z,87.10
2018-06-25T16:59:36.702Z,87.60
2018-06-25T17:02:05.180Z,88.30
2018-06-25T17:04:33.737Z,88.80
2018-06-25T17:07:02.261Z,89.40
2018-06-25T17:09:30.785Z,90.00
2018-06-25T17:11:59.289Z,89.70
2018-06-25T17:14:27.831Z,89.80
2018-06-25T17:16:56.320Z,90.20
2018-06-25T17:19:24.870Z,89.40
2018-06-25T17:21:53.374Z,89.80
2018-06-25T17:24:21.990Z,90.00
2018-06-25T17:26:50.822Z,90.70
2018-06-25T17:29:19.384Z,91.20
2018-06-25T17:31:47.997Z,91.10
2018-06-25T17:34:16.476Z,91.90
2018-06-25T17:36:45.113Z,92.60
2018-06-25T17:39:13.617Z,93.10
2018-06-25T17:41:42.146Z,93.50
2018-06-25T17:44:10.709Z,93.80
2018-06-25T17:46:39.225Z,93.70
2018-06-25T17:49:07.689Z,93.60
2018-06-25T17:51:36.254Z,93.60
2018-06-25T17:54:05.229Z,94.00
2018-06-25T17:56:33.765Z,94.80
2018-06-25T18:01:30.487Z,94.70
2018-06-25T18:03:59.042Z,94.70
2018-06-25T18:06:27.604Z,94.70
2018-06-25T18:08:56.136Z,94.80
2018-06-25T18:11:24.806Z,94.70
2018-06-25T18:13:53.317Z,95.10
2018-06-25T18:16:21.834Z,95.20
2018-06-25T18:21:20.098Z,95.70
2018-06-25T18:23:48.592Z,95.90
2018-06-25T18:26:17.109Z,95.80
2018-06-25T18:28:45.689Z,95.80
2018-06-25T18:31:14.225Z,96.00
2018-06-25T18:33:42.804Z,96.30
2018-06-25T18:36:11.729Z,96.40
2018-06-25T18:38:40.301Z,96.60
2018-06-25T18:41:08.846Z,96.50
2018-06-25T18:43:37.381Z,96.80
2018-06-25T18:46:05.908Z,96.90
2018-06-25T18:48:34.421Z,97.20
2018-06-25T18:51:02.975Z,97.70
2018-06-25T18:53:31.985Z,97.90
2018-06-25T18:56:00.506Z,98.20
2018-06-25T18:58:29.081Z,98.30
2018-06-25T19:00:57.586Z,98.40
2018-06-25T19:03:26.124Z,98.90
2018-06-25T19:05:54.779Z,99.50
2018-06-25T19:08:23.335Z,99.90
2018-06-25T19:10:51.865Z,99.90
2018-06-25T19:13:20.373Z,99.90
2018-06-25T19:18:17.586Z,99.90
2018-06-25T19:20:46.177Z,99.90
2018-06-25T19:25:46.546Z,99.90
2018-06-25T19:28:15.265Z,99.90
2018-06-25T19:30:43.799Z,99.90
2018-06-25T19:33:12.328Z,99.90
2018-06-25T19:38:09.103Z,99.90
2018-06-25T19:40:37.625Z,99.90
2018-06-25T19:43:06.113Z,99.90
2018-06-25T19:45:34.733Z,99.90
2018-06-25T19:48:03.250Z,99.90
2018-06-25T19:50:31.830Z,99.90
2018-06-25T19:53:00.359Z,99.90
2018-06-25T19:55:29.122Z,99.90
2018-06-25T19:57:57.649Z,99.90
2018-06-25T20:00:26.257Z,99.90
2018-06-25T20:02:54.774Z,99.90
2018-06-25T20:05:23.277Z,99.90
2018-06-25T20:07:51.804Z,99.90
2018-06-25T20:10:20.374Z,99.90
2018-06-25T20:12:48.917Z,99.90
2018-06-25T20:15:17.485Z,99.90
2018-06-25T20:17:45.956Z,99.90
2018-06-25T20:20:14.467Z,99.90
2018-06-25T20:22:42.993Z,99.90
2018-06-25T20:25:11.553Z,99.90
2018-06-25T20:27:40.097Z,99.90
2018-06-25T20:30:09.557Z,99.90
2018-06-25T20:32:38.101Z,99.90
2018-06-25T20:35:07.551Z,99.90
2018-06-25T20:37:36.205Z,99.90
2018-06-25T20:40:04.819Z,99.90
2018-06-25T20:42:33.391Z,99.90
2018-06-25T20:45:02.868Z,99.90
2018-06-25T20:47:31.664Z,99.90
2018-06-25T20:50:00.209Z,99.90
2018-06-25T20:52:28.761Z,99.90
2018-06-25T20:54:57.272Z,99.90
2018-06-25T20:57:25.817Z,99.90
2018-06-25T20:59:54.318Z,99.90
2018-06-25T21:02:23.082Z,99.90
2018-06-25T21:04:51.650Z,99.90
2018-06-25T21:07:20.185Z,99.90
2018-06-25T21:09:48.827Z,99.90
2018-06-25T21:12:17.397Z,99.90
2018-06-25T21:14:45.961Z,99.90
2018-06-25T21:17:14.483Z,99.90
2018-06-25T21:19:42.988Z,99.90
2018-06-25T21:22:11.529Z,99.90
2018-06-25T21:24:40.105Z,99.90
2018-06-25T21:27:08.597Z,99.90
2018-06-25T21:29:37.129Z,99.90
2018-06-25T21:32:05.734Z,99.90
2018-06-25T21:34:34.260Z,99.90
2018-06-25T21:37:02.775Z,99.90
2018-06-25T21:39:31.317Z,99.90
2018-06-25T21:41:59.827Z,99.90
2018-06-25T21:44:28.373Z,99.90
2018-06-25T21:46:56.882Z,99.90
2018-06-25T21:49:25.409Z,99.90
2018-06-25T21:51:53.977Z,99.90
2018-06-25T21:54:22.505Z,99.90
2018-06-25T21:56:51.020Z,99.90
2018-06-25T21:59:19.587Z,99.90
2018-06-25T22:01:51.988Z,99.90
2018-06-25T22:04:20.509Z,99.90
2018-06-25T22:06:48.993Z,99.90
2018-06-25T22:09:17.549Z,99.90
2018-06-25T22:14:14.585Z,99.90
2018-06-25T22:16:43.138Z,99.90
2018-06-25T22:19:11.637Z,99.90
2018-06-25T22:21:40.214Z,99.90
2018-06-25T22:24:08.769Z,99.90
2018-06-25T22:26:37.338Z,99.90
2018-06-25T22:29:06.169Z,99.90
2018-06-25T22:31:34.897Z,99.90
2018-06-25T22:34:03.521Z,99.90
2018-06-25T22:36:32.125Z,99.90
2018-06-25T22:39:00.630Z,99.90
2018-06-25T22:41:29.137Z,99.90
2018-06-25T22:44:06.449Z,99.90
2018-06-25T22:46:35.303Z,99.90
2018-06-25T22:49:03.826Z,99.90
2018-06-25T22:51:32.466Z,99.90
2018-06-25T22:54:00.998Z,99.90
2018-06-25T22:56:29.568Z,99.90
2018-06-25T22:58:58.092Z,99.90
2018-06-25T23:01:26.632Z,99.90
2018-06-25T23:03:55.098Z,99.90
2018-06-25T23:06:23.606Z,99.90
2018-06-25T23:08:52.103Z,99.90
2018-06-25T23:11:20.601Z,99.90
2018-06-25T23:13:49.190Z,99.90
2018-06-25T23:16:17.731Z,99.90
2018-06-25T23:18:46.333Z,99.90
2018-06-25T23:21:15.008Z,99.90
2018-06-25T23:23:43.551Z,99.90
2018-06-25T23:26:12.090Z,99.90
2018-06-25T23:28:40.646Z,99.90
2018-06-25T23:31:09.161Z,99.90
2018-06-25T23:33:37.676Z,99.90
2018-06-25T23:36:06.161Z,99.90
2018-06-25T23:38:34.689Z,99.90
2018-06-25T23:41:03.193Z,99.90
2018-06-25T23:43:31.716Z,99.90
2018-06-25T23:46:00.270Z,99.90
2018-06-25T23:48:28.793Z,99.90
2018-06-25T23:50:57.398Z,99.90
2018-06-25T23:53:25.905Z,99.90
2018-06-25T23:55:54.374Z,99.90
2018-06-25T23:58:22.974Z,99.90
